createdAt,value
2023-03-17T00:00:45.608Z,3.50
2023-03-17T00:03:36.071Z,3.28
2023-03-17T00:06:04.827Z,3.28
2023-03-17T00:08:34.144Z,2.55
2023-03-17T00:11:02.172Z,4.40
2023-03-17T00:13:31.021Z,2.78
2023-03-17T00:16:04.296Z,4.07
2023-03-17T00:18:33.571Z,3.90
2023-03-17T00:21:00.509Z,6.03
2023-03-17T00:23:27.658Z,4.47
2023-03-17T00:25:54.659Z,3.00
2023-03-17T00:28:27.147Z,4.38
2023-03-17T00:31:07.872Z,5.38
2023-03-17T00:33:37.385Z,6.40
2023-03-17T00:36:04.600Z,3.40
2023-03-17T00:38:31.608Z,3.90
2023-03-17T00:40:58.924Z,1.73
2023-03-17T00:43:26.076Z,4.93
2023-03-17T00:45:53.366Z,2.60
2023-03-17T00:48:22.854Z,5.80
2023-03-17T00:50:51.148Z,2.92
2023-03-17T00:53:21.724Z,3.20
2023-03-17T00:55:49.517Z,2.75
2023-03-17T00:58:29.312Z,2.80
2023-03-17T01:00:57.048Z,3.78
2023-03-17T01:03:25.012Z,3.83
2023-03-17T01:05:54.317Z,4.10
2023-03-17T01:08:22.810Z,4.13
2023-03-17T01:10:50.257Z,3.38
2023-03-17T01:13:19.235Z,3.05
2023-03-17T01:15:48.698Z,4.72
2023-03-17T01:18:18.382Z,5.22
2023-03-17T01:20:45.919Z,3.83
2023-03-17T01:23:13.994Z,3.22
2023-03-17T01:25:42.901Z,4.85
2023-03-17T01:28:15.209Z,2.45
2023-03-17T01:30:42.744Z,4.10
2023-03-17T01:33:14.804Z,2.97
2023-03-17T01:35:43.998Z,2.35
2023-03-17T01:38:11.983Z,3.60
2023-03-17T01:40:45.790Z,4.72
2023-03-17T01:43:12.746Z,3.22
2023-03-17T01:46:17.556Z,4.82
2023-03-17T01:48:53.576Z,3.45
2023-03-17T01:51:33.672Z,3.47
2023-03-17T01:54:03.804Z,2.58
2023-03-17T01:56:32.738Z,4.13
2023-03-17T01:59:03.006Z,3.05
2023-03-17T02:01:38.148Z,3.30
2023-03-17T02:04:06.769Z,2.83
2023-03-17T02:06:35.855Z,3.40
2023-03-17T02:09:04.489Z,4.32
2023-03-17T02:11:33.475Z,5.03
2023-03-17T02:14:01.972Z,3.22
2023-03-17T02:16:30.520Z,3.05
2023-03-17T02:18:57.525Z,6.00
2023-03-17T02:21:31.491Z,3.10
2023-03-17T02:24:01.749Z,4.82
2023-03-17T02:26:32.002Z,3.47
2023-03-17T02:28:59.320Z,4.43
2023-03-17T02:31:27.692Z,3.40
2023-03-17T02:33:54.784Z,4.55
2023-03-17T02:36:22.436Z,3.20
2023-03-17T02:38:49.431Z,4.40
2023-03-17T02:41:17.619Z,4.95
2023-03-17T02:43:44.927Z,2.78
2023-03-17T02:46:12.707Z,4.22
2023-03-17T02:48:40.250Z,7.88
2023-03-17T02:51:07.688Z,4.18
2023-03-17T02:53:34.741Z,4.07
2023-03-17T02:56:02.497Z,2.58
2023-03-17T02:58:29.944Z,4.40
2023-03-17T03:00:57.047Z,2.17
2023-03-17T03:03:24.264Z,6.18
2023-03-17T03:05:51.312Z,3.83
2023-03-17T03:08:18.558Z,4.85
2023-03-17T03:10:46.291Z,2.53
2023-03-17T03:13:13.549Z,1.95
2023-03-17T03:15:44.322Z,3.58
2023-03-17T03:19:01.096Z,4.85
2023-03-17T03:21:28.676Z,1.98
2023-03-17T03:23:56.159Z,3.20
2023-03-17T03:26:23.029Z,3.20
2023-03-17T03:28:53.977Z,3.60
2023-03-17T03:31:20.899Z,4.45
2023-03-17T03:33:47.973Z,4.15
2023-03-17T03:36:15.231Z,4.45
2023-03-17T03:38:42.850Z,3.45
2023-03-17T03:41:10.061Z,4.05
2023-03-17T03:43:37.097Z,3.17
2023-03-17T03:46:04.955Z,3.25
2023-03-17T03:48:32.287Z,4.88
2023-03-17T03:51:00.993Z,3.63
2023-03-17T03:53:29.607Z,3.47
2023-03-17T03:55:56.537Z,3.72
2023-03-17T03:58:23.955Z,2.70
2023-03-17T04:00:51.321Z,2.45
2023-03-17T04:03:18.471Z,4.07
2023-03-17T04:05:45.690Z,4.03
2023-03-17T04:08:20.464Z,3.35
2023-03-17T04:10:48.028Z,4.30
2023-03-17T04:13:15.934Z,3.92
2023-03-17T04:15:43.119Z,2.97
2023-03-17T04:18:10.239Z,3.45
2023-03-17T04:20:37.905Z,3.60
2023-03-17T04:23:11.056Z,4.47
2023-03-17T04:25:38.523Z,3.80
2023-03-17T04:28:05.661Z,3.40
2023-03-17T04:30:33.011Z,3.38
2023-03-17T04:33:00.334Z,3.80
2023-03-17T04:35:27.687Z,3.35
2023-03-17T04:37:54.595Z,4.38
2023-03-17T04:40:21.586Z,3.67
2023-03-17T04:42:48.853Z,6.50
2023-03-17T04:45:16.963Z,3.92
2023-03-17T04:47:46.477Z,8.13
2023-03-17T04:50:14.958Z,3.38
2023-03-17T04:52:42.437Z,3.78
2023-03-17T04:55:10.389Z,4.35
2023-03-17T04:57:38.992Z,3.60
2023-03-17T05:00:07.385Z,3.10
2023-03-17T05:02:35.103Z,3.20
2023-03-17T05:05:03.058Z,3.85
2023-03-17T05:07:32.194Z,4.28
2023-03-17T05:10:00.484Z,2.67
2023-03-17T05:12:27.681Z,3.03
2023-03-17T05:14:54.778Z,5.63
2023-03-17T05:17:21.800Z,3.42
2023-03-17T05:19:48.920Z,3.83
2023-03-17T05:22:17.073Z,4.25
2023-03-17T05:24:44.400Z,3.65
2023-03-17T05:27:12.835Z,3.45
2023-03-17T05:29:39.767Z,4.25
2023-03-17T05:32:06.738Z,3.63
2023-03-17T05:34:33.771Z,5.22
2023-03-17T05:37:01.200Z,3.03
2023-03-17T05:39:28.235Z,3.95
2023-03-17T05:41:55.036Z,4.68
2023-03-17T05:44:21.817Z,3.33
2023-03-17T05:46:49.084Z,2.97
2023-03-17T05:49:16.463Z,3.20
2023-03-17T05:51:43.364Z,3.55
2023-03-17T05:54:10.469Z,3.53
2023-03-17T05:56:37.629Z,4.05
2023-03-17T05:59:04.893Z,5.22
2023-03-17T06:01:31.735Z,3.95
2023-03-17T06:03:58.551Z,5.43
2023-03-17T06:06:26.054Z,5.72
2023-03-17T06:08:53.554Z,3.90
2023-03-17T06:11:22.082Z,3.70
2023-03-17T06:13:49.202Z,4.10
2023-03-17T06:16:16.928Z,4.35
2023-03-17T06:18:43.988Z,4.38
2023-03-17T06:21:11.019Z,5.68
2023-03-17T06:23:38.102Z,4.80
2023-03-17T06:26:06.120Z,3.35
2023-03-17T06:28:33.083Z,3.60
2023-03-17T06:31:00.477Z,4.93
2023-03-17T06:33:27.737Z,4.80
2023-03-17T06:35:54.909Z,4.35
2023-03-17T06:38:22.199Z,3.65
2023-03-17T06:40:49.323Z,5.90
2023-03-17T06:43:17.713Z,4.28
2023-03-17T06:45:44.670Z,6.15
2023-03-17T06:50:57.502Z,3.70
2023-03-17T06:53:24.473Z,4.85
2023-03-17T06:55:51.711Z,3.90
2023-03-17T06:58:20.683Z,3.60
2023-03-17T07:00:49.169Z,5.15
2023-03-17T07:03:17.167Z,3.30
2023-03-17T07:05:44.414Z,5.38
2023-03-17T07:08:11.881Z,3.20
2023-03-17T07:10:41.196Z,4.03
2023-03-17T07:13:09.035Z,4.00
2023-03-17T07:15:37.496Z,6.90
2023-03-17T07:18:06.715Z,4.53
2023-03-17T07:20:33.719Z,4.60
2023-03-17T07:23:00.967Z,5.97
2023-03-17T07:25:28.187Z,6.13
2023-03-17T07:27:55.870Z,4.22
2023-03-17T07:30:23.317Z,4.25
2023-03-17T07:32:50.995Z,4.15
2023-03-17T07:35:18.669Z,3.58
2023-03-17T07:37:45.818Z,5.35
2023-03-17T07:40:12.872Z,4.03
2023-03-17T07:42:39.660Z,4.78
2023-03-17T07:45:08.047Z,3.40
2023-03-17T07:47:35.132Z,4.90
2023-03-17T07:50:02.035Z,4.53
2023-03-17T07:52:28.808Z,2.58
2023-03-17T07:54:56.160Z,3.95
2023-03-17T07:57:22.870Z,3.42
2023-03-17T07:59:50.932Z,3.75
2023-03-17T08:02:22.356Z,3.78
2023-03-17T08:04:49.431Z,4.47
2023-03-17T08:07:16.163Z,4.47
2023-03-17T08:09:44.151Z,3.72
2023-03-17T08:12:11.830Z,4.40
2023-03-17T08:14:38.637Z,3.95
2023-03-17T08:17:06.566Z,3.45
2023-03-17T08:19:33.771Z,3.20
2023-03-17T08:22:01.481Z,5.43
2023-03-17T08:24:28.698Z,4.50
2023-03-17T08:26:55.906Z,4.55
2023-03-17T08:29:23.185Z,5.05
2023-03-17T08:31:50.180Z,4.28
2023-03-17T08:34:17.497Z,3.97
2023-03-17T08:36:44.457Z,5.20
2023-03-17T08:39:11.319Z,3.53
2023-03-17T08:41:38.851Z,4.35
2023-03-17T08:44:05.934Z,5.05
2023-03-17T08:46:33.142Z,4.68
2023-03-17T08:49:02.028Z,4.47
2023-03-17T08:51:31.855Z,4.30
2023-03-17T08:54:00.011Z,5.18
2023-03-17T08:56:27.483Z,4.30
2023-03-17T08:58:54.679Z,4.95
2023-03-17T09:01:23.065Z,4.65
2023-03-17T09:03:51.529Z,5.22
2023-03-17T09:06:18.396Z,5.53
2023-03-17T09:08:47.498Z,4.45
2023-03-17T09:11:17.276Z,3.83
2023-03-17T09:13:46.614Z,4.88
2023-03-17T09:16:15.022Z,6.82
2023-03-17T09:18:43.511Z,4.68
2023-03-17T09:21:12.072Z,6.25
2023-03-17T09:23:39.368Z,5.28
2023-03-17T09:26:06.594Z,5.45
2023-03-17T09:28:34.080Z,5.63
2023-03-17T09:31:03.116Z,5.00
2023-03-17T09:33:31.105Z,10.13
2023-03-17T09:35:58.082Z,8.63
2023-03-17T09:38:26.871Z,5.78
2023-03-17T09:41:24.114Z,9.43
2023-03-17T09:44:08.987Z,6.28
2023-03-17T09:46:53.484Z,7.93
2023-03-17T09:49:25.335Z,7.35
2023-03-17T09:51:53.279Z,8.98
2023-03-17T09:54:27.175Z,7.28
2023-03-17T09:57:26.798Z,9.63
2023-03-17T10:00:05.660Z,10.75
2023-03-17T10:02:40.026Z,9.50
2023-03-17T10:05:31.917Z,14.63
2023-03-17T10:08:26.986Z,9.57
2023-03-17T10:11:13.569Z,9.95
2023-03-17T10:14:10.406Z,6.78
2023-03-17T10:16:53.843Z,7.18
2023-03-17T10:21:55.662Z,6.93
2023-03-17T10:24:24.504Z,7.28
2023-03-17T10:26:55.295Z,6.93
2023-03-17T10:29:24.099Z,6.97
2023-03-17T10:31:56.259Z,7.82
2023-03-17T10:34:30.275Z,6.43
2023-03-17T10:37:00.389Z,6.28
2023-03-17T10:39:28.126Z,6.95
2023-03-17T10:41:57.088Z,6.30
2023-03-17T10:44:40.899Z,5.78
2023-03-17T10:47:24.203Z,5.68
2023-03-17T10:49:52.629Z,6.47
2023-03-17T10:52:23.342Z,7.30
2023-03-17T10:54:53.791Z,7.38
2023-03-17T10:57:21.439Z,4.93
2023-03-17T10:59:54.206Z,6.80
2023-03-17T11:02:29.573Z,6.82
2023-03-17T11:05:03.778Z,9.57
2023-03-17T11:07:41.841Z,7.88
2023-03-17T11:10:24.970Z,9.93
2023-03-17T11:13:01.700Z,10.82
2023-03-17T11:15:35.865Z,6.25
2023-03-17T11:18:08.022Z,12.13
2023-03-17T11:20:54.059Z,7.25
2023-03-17T11:23:24.034Z,9.52
2023-03-17T11:26:27.871Z,11.80
2023-03-17T11:29:33.410Z,9.40
2023-03-17T11:32:15.382Z,9.48
2023-03-17T11:34:56.959Z,11.57
2023-03-17T11:37:54.521Z,8.32
2023-03-17T11:40:32.448Z,7.32
2023-03-17T11:43:17.975Z,7.00
2023-03-17T11:45:52.005Z,8.35
2023-03-17T11:48:38.985Z,7.30
2023-03-17T11:51:27.686Z,11.43
2023-03-17T11:54:08.191Z,11.82
2023-03-17T11:56:49.910Z,8.80
2023-03-17T12:00:00.874Z,8.63
2023-03-17T12:02:49.479Z,9.20
2023-03-17T12:05:20.742Z,10.10
2023-03-17T12:07:58.523Z,7.82
2023-03-17T12:10:45.282Z,11.35
2023-03-17T12:13:39.923Z,6.63
2023-03-17T12:16:23.058Z,9.93
2023-03-17T12:18:56.837Z,9.90
2023-03-17T12:22:04.475Z,10.27
2023-03-17T12:24:44.158Z,11.70
2023-03-17T12:27:28.886Z,7.50
2023-03-17T12:30:02.920Z,8.18
2023-03-17T12:32:44.643Z,7.72
2023-03-17T12:35:34.296Z,8.57
2023-03-17T12:38:08.080Z,10.15
2023-03-17T12:40:41.796Z,8.63
2023-03-17T12:43:14.425Z,8.35
2023-03-17T12:46:03.195Z,9.82
2023-03-17T12:48:54.736Z,9.32
2023-03-17T12:51:45.936Z,11.85
2023-03-17T12:54:21.591Z,8.52
2023-03-17T12:56:49.950Z,7.55
2023-03-17T12:59:24.632Z,9.85
2023-03-17T13:02:12.756Z,9.27
2023-03-17T13:04:47.632Z,9.38
2023-03-17T13:07:14.410Z,9.63
2023-03-17T13:10:10.206Z,9.45
2023-03-17T13:12:39.813Z,8.27
2023-03-17T13:15:25.294Z,11.57
2023-03-17T13:18:13.702Z,10.45
2023-03-17T13:20:43.629Z,11.70
2023-03-17T13:23:10.366Z,8.73
2023-03-17T13:25:41.340Z,11.20
2023-03-17T13:28:11.866Z,9.52
2023-03-17T13:30:38.916Z,7.03
2023-03-17T13:33:09.692Z,8.65
2023-03-17T13:35:39.511Z,13.00
2023-03-17T13:38:28.352Z,14.75
2023-03-17T13:41:24.151Z,14.30
2023-03-17T13:44:04.076Z,11.05
2023-03-17T13:46:37.157Z,14.10
2023-03-17T13:49:16.637Z,16.08
2023-03-17T13:51:59.481Z,14.95
2023-03-17T13:54:28.138Z,9.50
2023-03-17T13:56:57.148Z,12.07
2023-03-17T13:59:35.822Z,12.50
2023-03-17T14:02:20.895Z,18.77
2023-03-17T14:05:00.918Z,11.38
2023-03-17T14:07:31.737Z,11.75
2023-03-17T14:10:01.843Z,10.75
2023-03-17T14:12:55.724Z,11.93
2023-03-17T14:15:56.420Z,14.35
2023-03-17T14:18:32.200Z,13.38
2023-03-17T14:21:02.167Z,11.27
2023-03-17T14:23:30.755Z,12.57
2023-03-17T14:25:58.815Z,11.13
2023-03-17T14:28:32.475Z,9.13
2023-03-17T14:31:02.374Z,10.52
2023-03-17T14:33:31.299Z,10.18
2023-03-17T14:36:01.120Z,8.27
2023-03-17T14:38:31.072Z,11.18
2023-03-17T14:41:16.837Z,10.13
2023-03-17T14:43:44.726Z,10.02
2023-03-17T14:46:17.765Z,11.38
2023-03-17T14:48:49.082Z,10.52
2023-03-17T14:51:30.902Z,11.48
2023-03-17T14:54:00.960Z,11.27
2023-03-17T14:57:00.152Z,10.52
2023-03-17T14:59:31.041Z,13.85
2023-03-17T15:02:00.916Z,14.02
2023-03-17T15:04:30.739Z,13.68
2023-03-17T15:07:03.700Z,9.43
2023-03-17T15:09:36.036Z,10.43
2023-03-17T15:12:46.909Z,10.05
2023-03-17T15:15:33.709Z,9.65
2023-03-17T15:18:57.138Z,9.45
2023-03-17T15:21:47.121Z,10.60
2023-03-17T15:24:25.285Z,11.40
2023-03-17T15:27:03.257Z,9.77
2023-03-17T15:29:31.237Z,12.38
2023-03-17T15:32:12.739Z,8.93
2023-03-17T15:34:40.778Z,9.45
2023-03-17T15:37:23.609Z,10.20
2023-03-17T15:39:53.001Z,9.38
2023-03-17T15:42:21.776Z,9.55
2023-03-17T15:44:48.518Z,9.43
2023-03-17T15:47:17.481Z,11.07
2023-03-17T15:49:45.201Z,13.93
2023-03-17T15:52:17.536Z,8.73
2023-03-17T15:54:46.339Z,9.43
2023-03-17T15:57:13.619Z,12.93
2023-03-17T15:59:41.049Z,11.27
2023-03-17T16:02:16.573Z,10.50
2023-03-17T16:04:43.563Z,12.27
2023-03-17T16:07:13.014Z,12.88
2023-03-17T16:09:39.812Z,11.07
2023-03-17T16:12:11.109Z,11.35
2023-03-17T16:14:38.524Z,10.65
2023-03-17T16:17:06.716Z,12.23
2023-03-17T16:19:33.938Z,11.52
2023-03-17T16:22:00.764Z,9.77
2023-03-17T16:24:27.559Z,8.45
2023-03-17T16:26:54.180Z,14.57
2023-03-17T16:29:21.709Z,14.82
2023-03-17T16:31:50.718Z,12.43
2023-03-17T16:34:19.794Z,14.00
2023-03-17T16:36:48.389Z,15.18
2023-03-17T16:39:22.623Z,11.80
2023-03-17T16:41:50.630Z,8.80
2023-03-17T16:44:20.520Z,13.07
2023-03-17T16:46:47.500Z,12.57
2023-03-17T16:49:19.584Z,12.82
2023-03-17T16:51:46.708Z,10.63
2023-03-17T16:54:14.086Z,9.88
2023-03-17T16:56:42.152Z,11.15
2023-03-17T16:59:21.241Z,11.43
2023-03-17T17:01:48.172Z,13.15
2023-03-17T17:04:17.898Z,15.07
2023-03-17T17:06:44.521Z,15.15
2023-03-17T17:09:11.227Z,11.27
2023-03-17T17:11:38.251Z,14.38
2023-03-17T17:14:05.108Z,15.30
2023-03-17T17:16:35.966Z,12.32
2023-03-17T17:19:04.011Z,14.38
2023-03-17T17:21:31.975Z,15.30
2023-03-17T17:23:58.836Z,11.32
2023-03-17T17:26:25.629Z,14.55
2023-03-17T17:28:52.500Z,16.83
2023-03-17T17:31:19.419Z,14.90
2023-03-17T17:33:46.338Z,14.88
2023-03-17T17:36:16.394Z,20.17
2023-03-17T17:38:43.229Z,19.23
2023-03-17T17:41:11.614Z,19.20
2023-03-17T17:43:38.498Z,30.70
2023-03-17T17:46:11.049Z,25.02
2023-03-17T17:48:37.854Z,18.33
2023-03-17T17:51:04.666Z,15.15
2023-03-17T17:53:31.643Z,17.67
2023-03-17T17:55:58.833Z,19.50
2023-03-17T17:58:26.763Z,16.42
2023-03-17T18:00:55.492Z,18.77
2023-03-17T18:03:25.261Z,16.42
2023-03-17T18:05:56.714Z,21.17
2023-03-17T18:08:24.578Z,19.02
2023-03-17T18:10:52.281Z,18.60
2023-03-17T18:13:19.760Z,17.45
2023-03-17T18:15:46.995Z,17.77
2023-03-17T18:18:13.993Z,23.05
2023-03-17T18:20:41.092Z,19.20
2023-03-17T18:23:08.515Z,16.00
2023-03-17T18:25:35.985Z,16.60
2023-03-17T18:28:03.469Z,17.40
2023-03-17T18:30:31.991Z,18.80
2023-03-17T18:33:06.597Z,19.83
2023-03-17T18:35:34.317Z,21.00
2023-03-17T18:38:01.583Z,18.80
2023-03-17T18:40:28.746Z,17.55
2023-03-17T18:42:56.009Z,18.33
2023-03-17T18:45:23.096Z,18.88
2023-03-17T18:47:49.936Z,16.88
2023-03-17T18:50:17.524Z,18.98
2023-03-17T18:52:45.038Z,20.20
2023-03-17T18:55:14.307Z,17.42
2023-03-17T18:57:44.351Z,20.33
2023-03-17T19:00:13.321Z,17.63
2023-03-17T19:02:40.220Z,19.75
2023-03-17T19:05:07.613Z,22.52
2023-03-17T19:07:34.751Z,19.77
2023-03-17T19:10:01.516Z,22.90
2023-03-17T19:12:28.471Z,19.30
2023-03-17T19:14:55.241Z,21.02
2023-03-17T19:17:23.111Z,26.98
2023-03-17T19:19:52.835Z,30.20
2023-03-17T19:22:19.954Z,24.48
2023-03-17T19:24:48.172Z,28.20
2023-03-17T19:27:14.994Z,22.95
2023-03-17T19:29:42.076Z,27.52
2023-03-17T19:32:09.304Z,27.58
2023-03-17T19:34:36.275Z,19.23
2023-03-17T19:37:03.825Z,16.55
2023-03-17T19:39:31.807Z,23.83
2023-03-17T19:41:59.441Z,22.85
2023-03-17T19:44:26.620Z,16.60
2023-03-17T19:46:53.620Z,20.23
2023-03-17T19:49:21.370Z,18.25
2023-03-17T19:51:49.186Z,21.17
2023-03-17T19:54:16.734Z,21.85
2023-03-17T19:56:43.470Z,17.27
2023-03-17T19:59:10.660Z,23.90
2023-03-17T20:01:38.680Z,22.83
2023-03-17T20:04:07.139Z,22.25
2023-03-17T20:06:34.843Z,24.10
2023-03-17T20:09:04.390Z,21.20
2023-03-17T20:11:34.051Z,16.38
2023-03-17T20:14:02.611Z,18.52
2023-03-17T20:16:32.178Z,15.93
2023-03-17T20:18:59.703Z,17.73
2023-03-17T20:21:26.627Z,20.38
2023-03-17T20:23:53.608Z,19.23
2023-03-17T20:26:20.826Z,19.40
2023-03-17T20:28:47.913Z,23.00
2023-03-17T20:31:14.921Z,22.23
2023-03-17T20:33:42.049Z,24.77
2023-03-17T20:36:09.797Z,18.13
2023-03-17T20:38:40.195Z,25.30
2023-03-17T20:41:09.227Z,26.00
2023-03-17T20:43:37.560Z,24.52
2023-03-17T20:46:08.692Z,26.00
2023-03-17T20:48:37.292Z,24.05
2023-03-17T20:51:06.167Z,21.33
2023-03-17T20:53:34.454Z,25.70
2023-03-17T20:56:01.689Z,23.77
2023-03-17T20:58:29.034Z,22.25
2023-03-17T21:00:57.167Z,22.02
2023-03-17T21:03:24.326Z,20.27
2023-03-17T21:05:51.356Z,17.42
2023-03-17T21:08:19.095Z,14.15
2023-03-17T21:10:45.957Z,12.38
2023-03-17T21:13:12.972Z,16.33
2023-03-17T21:15:40.118Z,15.25
2023-03-17T21:18:06.863Z,14.73
2023-03-17T21:20:33.893Z,15.48
2023-03-17T21:23:03.379Z,14.98
2023-03-17T21:25:31.245Z,11.93
2023-03-17T21:27:59.176Z,13.82
2023-03-17T21:30:25.924Z,16.67
2023-03-17T21:32:55.144Z,15.80
2023-03-17T21:35:24.144Z,15.60
2023-03-17T21:37:51.953Z,12.93
2023-03-17T21:40:19.067Z,16.98
2023-03-17T21:42:46.172Z,19.85
2023-03-17T21:45:13.970Z,17.90
2023-03-17T21:47:41.441Z,16.55
2023-03-17T21:50:08.858Z,14.57
2023-03-17T21:52:35.650Z,15.70
2023-03-17T21:55:02.870Z,19.73
2023-03-17T21:57:29.745Z,16.73
2023-03-17T21:59:56.552Z,20.50
2023-03-17T22:02:23.878Z,17.73
2023-03-17T22:04:52.890Z,17.30
2023-03-17T22:07:21.188Z,18.45
2023-03-17T22:09:53.119Z,18.42
2023-03-17T22:12:21.396Z,16.20
2023-03-17T22:14:51.246Z,19.05
2023-03-17T22:17:17.942Z,17.45
2023-03-17T22:19:50.045Z,18.00
2023-03-17T22:22:16.929Z,20.13
2023-03-17T22:24:43.904Z,19.30
2023-03-17T22:27:10.684Z,16.73
2023-03-17T22:29:38.178Z,15.68
2023-03-17T22:32:05.336Z,16.77
2023-03-17T22:34:32.368Z,18.40
2023-03-17T22:36:59.436Z,19.08
2023-03-17T22:39:26.294Z,16.02
2023-03-17T22:41:53.240Z,17.35
2023-03-17T22:44:19.938Z,19.27
2023-03-17T22:46:46.762Z,16.27
2023-03-17T22:49:13.826Z,15.32
2023-03-17T22:51:43.910Z,18.13
2023-03-17T22:54:11.793Z,16.42
2023-03-17T22:56:38.928Z,16.63
2023-03-17T22:59:06.149Z,15.73
2023-03-17T23:01:33.443Z,20.67
2023-03-17T23:04:00.431Z,18.20
2023-03-17T23:06:27.411Z,22.35
2023-03-17T23:08:54.293Z,15.57
2023-03-17T23:11:25.872Z,15.88
2023-03-17T23:13:53.561Z,17.67
2023-03-17T23:16:20.869Z,19.73
2023-03-17T23:18:47.829Z,17.63
2023-03-17T23:21:37.828Z,22.25
2023-03-17T23:24:07.754Z,19.75
2023-03-17T23:26:36.991Z,19.58
2023-03-17T23:29:06.206Z,21.05
2023-03-17T23:31:34.221Z,18.70
2023-03-17T23:34:01.373Z,20.60
2023-03-17T23:36:28.436Z,20.52
2023-03-17T23:38:55.414Z,25.25
2023-03-17T23:41:22.793Z,23.52
2023-03-17T23:43:49.916Z,22.08
2023-03-17T23:46:20.385Z,23.95
2023-03-17T23:48:49.201Z,22.10
2023-03-17T23:51:16.588Z,25.75
2023-03-17T23:53:43.482Z,26.48
2023-03-17T23:56:11.511Z,24.38
2023-03-17T23:58:39.039Z,26.90
